Time;durP1;ratioP1;P1;durP2;ratioP2;P2;SDS_P1;SDS_P2;PMS_P1;PMS_P2;Temp;Humidity;BMP_temperature;BMP_pressure;BME280_temperature;BME280_humidity;BME280_pressure;Samples;Min_cycle;Max_cycle;Signal;HPM_P1;HPM_P2
2023/04/08 00:00:23;;;;;;;8.20;4.55;;;10.00;77.80;;;;;;5041669;28;20040;-63
2023/04/08 00:02:49;;;;;;;7.68;3.78;;;9.90;77.70;;;;;;5031449;28;20041;-63
2023/04/08 00:05:15;;;;;;;8.40;4.50;;;9.90;77.70;;;;;;5036623;28;20450;-63
2023/04/08 00:07:41;;;;;;;8.38;4.65;;;9.90;77.70;;;;;;5034375;28;20409;-63
2023/04/08 00:10:07;;;;;;;7.60;4.30;;;9.90;77.70;;;;;;5038129;28;20033;-63
2023/04/08 00:12:33;;;;;;;8.70;4.90;;;9.90;77.70;;;;;;5032163;28;20040;-63
2023/04/08 00:14:59;;;;;;;8.30;4.38;;;9.90;77.60;;;;;;5045854;28;20025;-63
2023/04/08 00:17:25;;;;;;;8.90;5.18;;;9.90;77.60;;;;;;5049007;28;20098;-63
2023/04/08 00:19:51;;;;;;;8.43;5.00;;;9.80;77.50;;;;;;5039822;28;20094;-63
2023/04/08 00:22:17;;;;;;;8.98;4.97;;;9.80;77.50;;;;;;5044760;28;20386;-63
2023/04/08 00:24:43;;;;;;;8.55;5.03;;;9.80;77.50;;;;;;5037634;28;20457;-63
2023/04/08 00:27:08;;;;;;;12.02;5.57;;;9.70;77.40;;;;;;5029411;28;20406;-61
2023/04/08 00:29:35;;;;;;;10.52;6.13;;;9.70;77.40;;;;;;5043611;28;20089;-62
2023/04/08 00:32:00;;;;;;;9.32;5.80;;;9.70;77.50;;;;;;5026858;28;20025;-61
2023/04/08 00:34:26;;;;;;;9.73;5.38;;;9.70;77.50;;;;;;5036082;28;20025;-62
2023/04/08 00:36:52;;;;;;;9.30;5.57;;;9.70;77.50;;;;;;5037806;28;20025;-62
2023/04/08 00:39:18;;;;;;;9.55;5.60;;;9.70;77.50;;;;;;5033238;28;20029;-62
2023/04/08 00:41:44;;;;;;;9.75;5.47;;;9.70;77.60;;;;;;5040782;28;20070;-62
2023/04/08 00:44:10;;;;;;;9.68;5.53;;;9.70;77.60;;;;;;5039645;28;20029;-62
2023/04/08 00:46:38;;;;;;;9.63;5.72;;;9.60;77.50;;;;;;5039564;28;20025;-62
2023/04/08 00:49:04;;;;;;;10.60;5.75;;;9.60;77.60;;;;;;5043794;28;20029;-62
2023/04/08 00:51:30;;;;;;;10.55;6.28;;;9.60;77.60;;;;;;5045845;28;20033;-62
2023/04/08 00:53:56;;;;;;;12.45;7.15;;;9.60;77.60;;;;;;5047290;28;20124;-62
2023/04/08 00:56:23;;;;;;;13.05;7.38;;;9.60;77.60;;;;;;5036135;28;20195;-62
2023/04/08 00:58:53;;;;;;;12.60;7.40;;;9.60;77.60;;;;;;5048410;28;20021;-62
2023/04/08 01:01:45;;;;;;;11.88;7.03;;;9.60;77.60;;;;;;5044455;28;20478;-62
2023/04/08 01:04:26;;;;;;;14.00;6.30;;;9.60;77.60;;;;;;5043944;28;20036;-62
2023/04/08 01:07:23;;;;;;;12.63;7.07;;;9.50;77.60;;;;;;5028253;28;20083;-61
2023/04/08 01:09:53;;;;;;;12.02;6.85;;;9.50;77.50;;;;;;5039629;28;20437;-61
2023/04/08 01:12:25;;;;;;;;;;;9.50;77.60;;;;;;5042408;28;20025;-61
2023/04/08 01:14:56;;;;;;;11.05;6.28;;;9.50;77.70;;;;;;5043615;28;19913;-61
2023/04/08 01:17:22;;;;;;;11.90;6.43;;;9.40;77.60;;;;;;5019064;28;20029;-61
2023/04/08 01:19:49;;;;;;;12.18;6.43;;;9.40;77.60;;;;;;5039010;28;20067;-61
2023/04/08 01:22:26;;;;;;;10.75;6.55;;;9.40;77.60;;;;;;5040145;28;20025;-61
2023/04/08 01:25:00;;;;;;;9.93;5.95;;;9.30;77.50;;;;;;5042021;28;20052;-62
2023/04/08 01:27:29;;;;;;;10.88;6.13;;;9.40;77.60;;;;;;5032889;28;20021;-61
2023/04/08 01:29:55;;;;;;;10.13;5.60;;;9.40;77.50;;;;;;5035681;28;20029;-61
2023/04/08 01:32:22;;;;;;;9.43;5.35;;;9.30;77.40;;;;;;5033403;28;20072;-61
2023/04/08 01:34:48;;;;;;;10.00;5.80;;;9.30;77.40;;;;;;5040341;28;20021;-61
2023/04/08 01:37:15;;;;;;;10.75;6.18;;;9.30;77.40;;;;;;5033304;28;20045;-61
2023/04/08 01:39:41;;;;;;;12.32;6.40;;;9.30;77.40;;;;;;5040340;28;20025;-62
2023/04/08 01:42:07;;;;;;;9.80;5.75;;;9.30;77.40;;;;;;5025256;28;20049;-61
2023/04/08 01:44:35;;;;;;;10.18;5.97;;;9.30;77.40;;;;;;5037520;28;20055;-61
2023/04/08 01:47:02;;;;;;;10.15;6.00;;;9.20;77.40;;;;;;5048375;28;20028;-61
2023/04/08 01:49:29;;;;;;;10.45;6.00;;;9.20;77.40;;;;;;5029822;28;20033;-61
2023/04/08 01:51:57;;;;;;;9.57;5.85;;;9.20;77.40;;;;;;5048326;28;20037;-61
2023/04/08 01:54:23;;;;;;;9.38;5.63;;;9.20;77.40;;;;;;5042721;28;20061;-61
2023/04/08 01:56:50;;;;;;;10.07;5.70;;;9.10;77.20;;;;;;5043492;28;20080;-61
2023/04/08 01:59:17;;;;;;;9.45;5.78;;;9.20;77.40;;;;;;5029673;28;20025;-61
2023/04/08 02:01:44;;;;;;;9.30;5.57;;;9.10;77.30;;;;;;5040716;28;20319;-61
2023/04/08 02:04:11;;;;;;;11.50;6.60;;;9.10;77.20;;;;;;5009709;28;20026;-61
2023/04/08 02:06:37;;;;;;;10.13;6.05;;;9.10;77.20;;;;;;5047436;28;20484;-61
2023/04/08 02:09:04;;;;;;;10.07;6.18;;;9.10;77.20;;;;;;5041829;28;20029;-61
2023/04/08 02:11:30;;;;;;;9.55;5.63;;;9.10;77.20;;;;;;5041400;28;20049;-61
2023/04/08 02:13:57;;;;;;;10.88;6.18;;;9.10;77.10;;;;;;5035584;28;20371;-61
2023/04/08 02:16:32;;;;;;;9.85;6.30;;;9.00;77.00;;;;;;5047953;28;20342;-61
2023/04/08 02:19:06;;;;;;;8.90;5.50;;;9.00;77.00;;;;;;5034204;28;20450;-61
2023/04/08 02:21:41;;;;;;;9.07;5.15;;;9.00;77.00;;;;;;5044835;28;20049;-61
2023/04/08 02:24:09;;;;;;;9.10;5.75;;;9.00;77.00;;;;;;5047315;28;20354;-61
2023/04/08 02:26:37;;;;;;;9.35;5.88;;;9.00;77.00;;;;;;5050166;28;20097;-61
2023/04/08 02:29:05;;;;;;;8.98;5.70;;;8.90;76.90;;;;;;5031651;28;20026;-62
2023/04/08 02:31:32;;;;;;;9.75;6.18;;;8.90;76.90;;;;;;5040221;28;20315;-61
2023/04/08 02:33:59;;;;;;;10.80;6.65;;;8.90;76.90;;;;;;5048028;28;20057;-62
2023/04/08 02:36:32;;;;;;;10.93;6.70;;;8.90;76.90;;;;;;5050923;28;20017;-62
2023/04/08 02:39:01;;;;;;;11.43;6.82;;;8.90;76.80;;;;;;5039613;28;20021;-62
2023/04/08 02:41:30;;;;;;;10.13;6.35;;;8.80;76.80;;;;;;5041881;28;20031;-62
2023/04/08 02:43:56;;;;;;;9.55;5.78;;;8.80;76.80;;;;;;5053416;28;20048;-62
2023/04/08 02:46:22;;;;;;;10.02;6.60;;;8.80;76.80;;;;;;5049398;28;20035;-62
2023/04/08 02:48:48;;;;;;;10.98;6.45;;;8.80;76.80;;;;;;5044477;28;20456;-62
2023/04/08 02:51:14;;;;;;;10.65;6.72;;;8.80;76.80;;;;;;5021620;28;20469;-62
2023/04/08 02:53:40;;;;;;;11.98;6.95;;;8.70;76.70;;;;;;5053725;28;20065;-62
2023/04/08 02:56:09;;;;;;;10.40;6.88;;;8.70;76.60;;;;;;5020544;28;20041;-61
2023/04/08 02:58:34;;;;;;;10.73;7.40;;;8.70;76.60;;;;;;5044195;28;20061;-61
2023/04/08 03:01:00;;;;;;;11.10;7.25;;;8.70;76.60;;;;;;5034389;28;20052;-62
2023/04/08 03:03:28;;;;;;;10.20;6.63;;;8.70;76.60;;;;;;5056160;28;20452;-62
2023/04/08 03:05:55;;;;;;;12.27;7.32;;;8.60;76.50;;;;;;5038045;28;20079;-62
2023/04/08 03:08:21;;;;;;;9.70;6.43;;;8.60;76.40;;;;;;5035152;28;20410;-63
2023/04/08 03:10:48;;;;;;;11.98;7.53;;;8.60;76.40;;;;;;5036438;28;20358;-62
2023/04/08 03:13:14;;;;;;;10.20;6.47;;;8.50;76.30;;;;;;5036404;28;20315;-62
2023/04/08 03:15:40;;;;;;;8.70;5.72;;;8.60;76.40;;;;;;5044173;28;20462;-62
2023/04/08 03:18:05;;;;;;;8.60;5.57;;;8.50;76.30;;;;;;5051560;28;20055;-61
2023/04/08 03:20:31;;;;;;;10.15;5.93;;;8.50;76.20;;;;;;5039199;28;20337;-62
2023/04/08 03:22:57;;;;;;;9.63;5.50;;;8.50;76.10;;;;;;5053039;28;20025;-61
2023/04/08 03:25:23;;;;;;;8.68;5.15;;;8.50;76.80;;;;;;5043005;28;20574;-61
2023/04/08 03:27:49;;;;;;;7.65;4.82;;;8.50;76.10;;;;;;5055744;28;20036;-61
2023/04/08 03:30:15;;;;;;;8.93;5.25;;;8.40;76.00;;;;;;5042556;28;20114;-61
2023/04/08 03:32:41;;;;;;;8.23;4.88;;;8.40;75.90;;;;;;5047345;28;20438;-62
2023/04/08 03:35:08;;;;;;;7.80;4.72;;;8.30;75.90;;;;;;5050624;28;20025;-61
2023/04/08 03:37:33;;;;;;;8.10;4.75;;;8.30;75.80;;;;;;5037201;28;20554;-61
2023/04/08 03:39:59;;;;;;;7.97;4.75;;;8.30;75.80;;;;;;5043761;28;20024;-61
2023/04/08 03:42:26;;;;;;;7.90;4.88;;;8.30;75.80;;;;;;5041246;28;20378;-61
2023/04/08 03:44:51;;;;;;;7.60;4.72;;;8.30;75.80;;;;;;5050202;28;20378;-61
2023/04/08 03:47:17;;;;;;;7.72;4.50;;;8.20;75.70;;;;;;5043205;28;20043;-61
2023/04/08 03:49:43;;;;;;;7.95;4.63;;;8.20;76.30;;;;;;5048988;28;20033;-61
2023/04/08 03:52:09;;;;;;;8.05;4.68;;;8.20;75.70;;;;;;5037931;28;20053;-61
2023/04/08 03:54:34;;;;;;;8.25;4.95;;;8.10;76.30;;;;;;5049966;28;20053;-62
2023/04/08 03:57:00;;;;;;;7.95;4.75;;;8.10;75.60;;;;;;5033381;28;20083;-61
2023/04/08 03:59:27;;;;;;;7.70;4.80;;;8.10;75.50;;;;;;5049995;28;20072;-61
2023/04/08 04:01:53;;;;;;;8.00;5.00;;;8.10;75.60;;;;;;5037955;28;20013;-61
2023/04/08 04:04:19;;;;;;;8.00;5.05;;;8.10;75.60;;;;;;5032832;28;20505;-61
2023/04/08 04:06:45;;;;;;;7.93;4.70;;;8.00;75.40;;;;;;5033576;28;20033;-61
2023/04/08 04:09:10;;;;;;;9.20;4.85;;;8.00;75.40;;;;;;5045854;28;20112;-61
2023/04/08 04:11:36;;;;;;;8.40;4.60;;;8.00;75.50;;;;;;5043197;28;20422;-61
2023/04/08 04:14:03;;;;;;;8.57;5.07;;;8.00;75.40;;;;;;5044742;28;20365;-61
2023/04/08 04:16:29;;;;;;;8.25;4.80;;;8.00;75.40;;;;;;5054726;28;20106;-61
2023/04/08 04:18:54;;;;;;;8.60;5.38;;;7.90;75.40;;;;;;5042817;28;20449;-61
2023/04/08 04:21:20;;;;;;;8.70;5.00;;;7.90;75.40;;;;;;5045020;28;20036;-61
2023/04/08 04:23:46;;;;;;;9.13;5.38;;;7.90;75.40;;;;;;5039328;28;20561;-61
2023/04/08 04:26:12;;;;;;;9.43;5.68;;;7.90;75.40;;;;;;5029413;28;20029;-62
2023/04/08 04:28:37;;;;;;;10.27;5.68;;;7.90;75.40;;;;;;5044601;28;20230;-61
2023/04/08 04:31:03;;;;;;;9.35;6.03;;;7.80;75.30;;;;;;5049093;28;20032;-61
2023/04/08 04:33:30;;;;;;;11.02;7.03;;;7.80;75.30;;;;;;5040273;28;20033;-61
2023/04/08 04:35:56;;;;;;;10.15;6.55;;;7.80;75.30;;;;;;5054479;28;20032;-62
2023/04/08 04:38:22;;;;;;;11.07;6.63;;;7.80;75.30;;;;;;5045072;28;20029;-62
2023/04/08 04:40:47;;;;;;;10.85;7.10;;;7.80;75.30;;;;;;5049959;28;20043;-62
2023/04/08 04:43:13;;;;;;;12.23;8.02;;;7.70;75.20;;;;;;5028149;28;20080;-61
2023/04/08 04:45:39;;;;;;;11.13;7.40;;;7.70;75.20;;;;;;5023502;28;20025;-61
2023/04/08 04:48:05;;;;;;;12.27;8.18;;;7.70;75.20;;;;;;4997944;28;20422;-61
2023/04/08 04:50:31;;;;;;;12.65;8.57;;;7.70;75.10;;;;;;5030179;28;20034;-61
2023/04/08 04:52:57;;;;;;;14.10;9.32;;;7.70;75.10;;;;;;5018863;28;20517;-61
2023/04/08 04:55:22;;;;;;;14.10;10.13;;;7.70;75.10;;;;;;5025176;28;20056;-61
2023/04/08 04:57:48;;;;;;;14.60;10.93;;;7.70;75.00;;;;;;5021357;28;20113;-61
2023/04/08 05:00:15;;;;;;;15.00;10.65;;;7.70;74.80;;;;;;5032884;28;20327;-61
2023/04/08 05:02:41;;;;;;;16.10;11.38;;;7.80;74.70;;;;;;5031779;28;20021;-61
2023/04/08 05:05:08;;;;;;;15.05;11.07;;;7.80;74.60;;;;;;5032266;28;20037;-61
2023/04/08 05:07:37;;;;;;;15.73;10.82;;;7.80;74.60;;;;;;5014961;28;20037;-60
2023/04/08 05:10:04;;;;;;;15.95;10.48;;;7.80;74.60;;;;;;5008378;28;20018;-61
2023/04/08 05:12:30;;;;;;;15.40;10.52;;;7.80;74.50;;;;;;5032726;28;20044;-61
2023/04/08 05:14:59;;;;;;;15.35;11.35;;;7.80;74.40;;;;;;5037204;28;20033;-61
2023/04/08 05:17:25;;;;;;;16.15;11.02;;;7.80;74.30;;;;;;5048603;28;20033;-61
2023/04/08 05:19:52;;;;;;;14.52;10.20;;;7.70;74.30;;;;;;5042181;28;20037;-62
2023/04/08 05:22:18;;;;;;;15.00;10.68;;;7.80;74.40;;;;;;5043778;28;20029;-61
2023/04/08 05:24:43;;;;;;;14.70;10.63;;;7.70;74.30;;;;;;5025147;28;20044;-61
2023/04/08 05:27:09;;;;;;;16.10;10.95;;;7.70;74.30;;;;;;5039701;28;20029;-63
2023/04/08 05:29:35;;;;;;;14.75;10.73;;;7.70;74.30;;;;;;5040550;28;20041;-62
2023/04/08 05:32:01;;;;;;;14.52;9.88;;;7.70;74.30;;;;;;5031077;28;20029;-62
2023/04/08 05:34:26;;;;;;;14.55;10.68;;;7.70;74.30;;;;;;5039230;28;20075;-61
2023/04/08 05:36:52;;;;;;;14.05;10.15;;;7.70;74.30;;;;;;5043918;28;20106;-62
2023/04/08 05:39:19;;;;;;;15.27;11.07;;;7.70;74.30;;;;;;5049773;28;20422;-61
2023/04/08 05:41:45;;;;;;;15.10;10.95;;;7.70;74.30;;;;;;5053557;28;20032;-61
2023/04/08 05:44:12;;;;;;;15.02;9.85;;;7.70;74.30;;;;;;5053491;28;20090;-61
2023/04/08 05:46:38;;;;;;;13.70;10.70;;;7.70;74.20;;;;;;5052619;28;20450;-61
2023/04/08 05:49:04;;;;;;;14.27;10.05;;;7.80;74.30;;;;;;5047467;28;20028;-62
2023/04/08 05:51:30;;;;;;;14.52;10.35;;;7.90;74.10;;;;;;5051294;28;20094;-62
2023/04/08 05:53:55;;;;;;;16.83;11.25;;;8.00;73.90;;;;;;5053806;28;20029;-61
2023/04/08 05:56:21;;;;;;;14.15;10.55;;;8.00;73.90;;;;;;5054653;28;20106;-62
2023/04/08 05:58:47;;;;;;;16.15;10.75;;;8.00;74.00;;;;;;5053126;28;20029;-62
2023/04/08 06:01:13;;;;;;;13.57;10.40;;;8.00;74.00;;;;;;5055634;28;20036;-62
2023/04/08 06:03:38;;;;;;;15.18;10.18;;;8.10;73.90;;;;;;5054631;28;20033;-62
2023/04/08 06:06:10;;;;;;;15.68;9.98;;;8.20;73.60;;;;;;5039927;28;20037;-62
2023/04/08 06:08:36;;;;;;;15.43;10.75;;;8.40;73.30;;;;;;5044214;28;20390;-61
2023/04/08 06:11:05;;;;;;;13.57;9.65;;;8.50;73.20;;;;;;5044964;28;20029;-62
2023/04/08 06:13:31;;;;;;;14.63;10.07;;;8.50;73.10;;;;;;5041908;28;20353;-62
2023/04/08 06:15:57;;;;;;;14.20;9.52;;;8.70;73.00;;;;;;5040643;28;20049;-61
2023/04/08 06:18:22;;;;;;;14.13;9.02;;;9.00;72.50;;;;;;5040082;28;20029;-62
2023/04/08 06:20:49;;;;;;;12.40;9.40;;;9.30;71.90;;;;;;5041289;28;20021;-61
2023/04/08 06:23:15;;;;;;;12.27;8.77;;;9.60;71.40;;;;;;5037705;28;20029;-61
2023/04/08 06:25:41;;;;;;;12.48;8.63;;;9.90;70.90;;;;;;5051662;28;20038;-62
2023/04/08 06:28:06;;;;;;;13.80;9.32;;;10.50;70.10;;;;;;5042692;28;20120;-61
2023/04/08 06:30:32;;;;;;;12.65;8.35;;;11.10;68.80;;;;;;5033897;28;20056;-61
2023/04/08 06:32:58;;;;;;;13.57;9.00;;;11.60;67.80;;;;;;5035856;28;20060;-61
2023/04/08 06:35:24;;;;;;;13.50;7.95;;;12.10;66.80;;;;;;5047768;28;20029;-62
2023/04/08 06:37:49;;;;;;;10.65;7.78;;;12.60;65.70;;;;;;5050511;28;20026;-62
2023/04/08 06:40:15;;;;;;;11.25;7.82;;;13.00;64.80;;;;;;5048332;28;20086;-62
2023/04/08 06:42:43;;;;;;;11.02;7.82;;;13.30;64.00;;;;;;5039317;28;20386;-62
2023/04/08 06:45:21;;;;;;;10.88;7.78;;;13.50;63.50;;;;;;5038018;28;20018;-63
2023/04/08 06:47:46;;;;;;;10.68;7.30;;;13.50;63.30;;;;;;5051907;28;20029;-62
2023/04/08 06:50:12;;;;;;;10.70;6.95;;;13.30;63.30;;;;;;5042181;28;20028;-62
2023/04/08 06:52:38;;;;;;;10.68;7.22;;;13.10;63.40;;;;;;5038467;28;20017;-62
2023/04/08 06:55:04;;;;;;;10.95;7.30;;;12.90;63.60;;;;;;5018849;28;20385;-62
2023/04/08 06:57:30;;;;;;;11.65;7.78;;;12.80;63.60;;;;;;5039521;28;20149;-62
2023/04/08 06:59:56;;;;;;;10.80;7.35;;;12.70;63.70;;;;;;5040610;28;20026;-62
2023/04/08 07:02:22;;;;;;;10.45;6.95;;;12.60;63.70;;;;;;5035997;28;20094;-62
2023/04/08 07:04:48;;;;;;;10.55;7.35;;;12.50;63.70;;;;;;5037655;28;20374;-62
2023/04/08 07:07:14;;;;;;;11.82;6.90;;;12.50;63.50;;;;;;5047471;28;20098;-63
2023/04/08 07:09:42;;;;;;;11.98;6.88;;;12.50;63.30;;;;;;5048058;28;20486;-63
2023/04/08 07:12:08;;;;;;;10.77;6.65;;;12.50;63.10;;;;;;5025100;28;20029;-62
2023/04/08 07:14:33;;;;;;;11.00;7.07;;;12.60;63.10;;;;;;5052337;28;20418;-62
2023/04/08 07:16:59;;;;;;;10.13;6.40;;;12.70;62.90;;;;;;5042970;28;20103;-62
2023/04/08 07:19:25;;;;;;;10.88;6.75;;;12.70;62.50;;;;;;5039490;28;20370;-63
2023/04/08 07:21:51;;;;;;;10.75;6.45;;;12.80;62.30;;;;;;5041633;28;20358;-62
2023/04/08 07:24:17;;;;;;;10.32;6.07;;;12.80;62.20;;;;;;5035654;28;20033;-63
2023/04/08 07:26:44;;;;;;;10.25;6.47;;;12.90;61.90;;;;;;5037374;28;20040;-63
2023/04/08 07:29:10;;;;;;;8.10;5.43;;;13.00;61.50;;;;;;5033854;28;20473;-62
2023/04/08 07:31:35;;;;;;;9.75;5.90;;;13.10;61.10;;;;;;5045188;28;20033;-63
2023/04/08 07:34:01;;;;;;;8.98;6.00;;;13.20;60.80;;;;;;5033129;28;20116;-62
2023/04/08 07:36:27;;;;;;;10.30;5.93;;;13.30;60.60;;;;;;5047657;28;20101;-63
2023/04/08 07:38:53;;;;;;;9.20;5.32;;;13.50;60.40;;;;;;5038584;28;20319;-63
2023/04/08 07:41:20;;;;;;;9.57;5.43;;;13.60;60.70;;;;;;5050424;28;20033;-63
2023/04/08 07:43:46;;;;;;;8.23;5.38;;;13.70;59.70;;;;;;5034875;28;20029;-64
2023/04/08 07:46:11;;;;;;;9.20;5.78;;;13.80;59.50;;;;;;5055426;28;20052;-63
2023/04/08 07:48:37;;;;;;;9.40;5.35;;;14.00;59.30;;;;;;5031626;28;20440;-63
2023/04/08 07:51:08;;;;;;;9.13;5.65;;;14.20;58.90;;;;;;5035034;28;20082;-63
2023/04/08 07:53:34;;;;;;;8.95;5.65;;;14.20;58.60;;;;;;5042274;28;20108;-63
2023/04/08 07:56:00;;;;;;;10.10;5.40;;;14.40;58.50;;;;;;5048025;28;20033;-63
2023/04/08 07:58:26;;;;;;;9.48;5.05;;;14.50;58.20;;;;;;5050030;28;20029;-63
2023/04/08 08:00:52;;;;;;;9.00;5.40;;;14.60;57.80;;;;;;5046265;28;20037;-63
2023/04/08 08:03:18;;;;;;;10.45;5.78;;;14.80;57.60;;;;;;5050474;28;20072;-63
2023/04/08 08:05:43;;;;;;;8.32;5.40;;;14.90;57.40;;;;;;5042332;28;20025;-63
2023/04/08 08:08:12;;;;;;;9.30;5.70;;;15.10;57.10;;;;;;5034385;28;20338;-63
2023/04/08 08:10:38;;;;;;;8.70;5.50;;;15.20;56.70;;;;;;5046101;28;20033;-63
2023/04/08 08:13:05;;;;;;;9.18;5.78;;;15.30;56.50;;;;;;5041274;28;20041;-63
2023/04/08 08:15:31;;;;;;;9.60;5.60;;;15.40;56.50;;;;;;5043166;28;20138;-63
2023/04/08 08:17:57;;;;;;;10.52;5.82;;;15.50;56.30;;;;;;5038250;28;20442;-63
2023/04/08 08:20:23;;;;;;;9.93;5.95;;;15.70;56.10;;;;;;5044990;28;20033;-63
2023/04/08 08:22:49;;;;;;;8.70;5.55;;;15.60;55.90;;;;;;5038202;28;20021;-63
2023/04/08 08:25:16;;;;;;;9.35;5.32;;;15.60;55.80;;;;;;5042299;28;20323;-63
2023/04/08 08:27:42;;;;;;;9.27;5.68;;;15.70;55.90;;;;;;5042233;28;20037;-64
2023/04/08 08:30:08;;;;;;;9.80;5.53;;;15.60;55.70;;;;;;5053211;28;20395;-64
2023/04/08 08:32:35;;;;;;;9.55;5.55;;;15.50;55.80;;;;;;5035933;28;20139;-64
2023/04/08 08:35:01;;;;;;;10.43;5.65;;;15.60;55.70;;;;;;5047399;28;20029;-63
2023/04/08 08:37:27;;;;;;;9.23;5.43;;;15.60;55.50;;;;;;5032195;28;20032;-63
2023/04/08 08:39:52;;;;;;;9.73;5.97;;;15.70;55.30;;;;;;5041202;28;20025;-64
2023/04/08 08:42:20;;;;;;;9.60;5.55;;;15.80;55.20;;;;;;5040237;28;20032;-64
2023/04/08 08:44:46;;;;;;;8.23;5.13;;;15.90;55.00;;;;;;5045720;28;20043;-63
2023/04/08 08:47:12;;;;;;;8.52;5.25;;;16.00;55.00;;;;;;5032360;28;20059;-64
2023/04/08 08:49:38;;;;;;;8.10;4.90;;;16.20;54.80;;;;;;5042509;28;20098;-63
2023/04/08 08:52:05;;;;;;;8.07;4.90;;;16.20;54.40;;;;;;5040552;28;20025;-63
2023/04/08 08:54:31;;;;;;;9.88;5.18;;;16.30;54.30;;;;;;5054046;28;20343;-63
2023/04/08 08:56:57;;;;;;;8.52;4.95;;;16.30;54.20;;;;;;5054517;28;20040;-63
2023/04/08 08:59:23;;;;;;;7.95;5.03;;;16.40;54.20;;;;;;5041945;28;20028;-63
2023/04/08 09:01:49;;;;;;;8.70;5.15;;;16.50;53.90;;;;;;5054351;28;20040;-63
2023/04/08 09:04:18;;;;;;;8.15;4.72;;;16.60;53.80;;;;;;5054204;28;20048;-63
2023/04/08 09:06:45;;;;;;;10.10;5.85;;;16.70;53.70;;;;;;5053314;28;20032;-63
2023/04/08 09:09:12;;;;;;;8.32;5.50;;;16.70;53.30;;;;;;5043365;28;20072;-63
2023/04/08 09:11:45;;;;;;;8.65;5.60;;;16.80;53.20;;;;;;5053067;28;20505;-63
2023/04/08 09:14:24;;;;;;;9.52;5.55;;;16.90;52.90;;;;;;5053192;28;20037;-63
2023/04/08 09:16:51;;;;;;;10.23;5.32;;;16.90;52.70;;;;;;5054388;28;20021;-63
2023/04/08 09:19:17;;;;;;;9.90;5.13;;;16.90;52.80;;;;;;5044306;28;20451;-63
2023/04/08 09:21:43;;;;;;;8.80;5.43;;;17.00;52.90;;;;;;5054004;28;20051;-63
2023/04/08 09:24:27;;;;;;;9.32;5.50;;;17.00;52.70;;;;;;5054263;28;20067;-63
2023/04/08 09:26:53;;;;;;;8.63;5.18;;;17.10;52.40;;;;;;5054425;28;20025;-63
2023/04/08 09:29:23;;;;;;;8.63;5.15;;;17.10;52.70;;;;;;5046816;28;20056;-63
2023/04/08 09:31:53;;;;;;;9.05;5.35;;;17.20;52.40;;;;;;5052965;28;20398;-63
2023/04/08 09:34:20;;;;;;;9.00;5.20;;;17.10;52.20;;;;;;5053690;28;20048;-63
2023/04/08 09:36:48;;;;;;;8.43;5.38;;;17.10;52.40;;;;;;5053775;28;20025;-63
2023/04/08 09:39:14;;;;;;;9.00;5.55;;;17.20;52.40;;;;;;5049753;28;20037;-63
2023/04/08 09:41:41;;;;;;;12.38;5.43;;;17.20;52.10;;;;;;5033178;28;20116;-63
2023/04/08 09:44:09;;;;;;;9.88;5.65;;;17.30;52.10;;;;;;5040562;28;20025;-63
2023/04/08 09:46:51;;;;;;;8.95;6.00;;;17.40;52.10;;;;;;5037695;28;20397;-63
2023/04/08 09:49:37;;;;;;;9.52;5.75;;;17.60;51.80;;;;;;5037857;28;20061;-63
2023/04/08 09:52:06;;;;;;;9.70;6.20;;;17.60;51.60;;;;;;5042547;28;20041;-63
2023/04/08 09:54:58;;;;;;;8.65;5.22;;;17.70;51.50;;;;;;5032502;28;20041;-63
2023/04/08 09:57:42;;;;;;;9.00;6.05;;;17.80;51.60;;;;;;5045331;28;20101;-64
2023/04/08 10:00:16;;;;;;;9.57;5.43;;;17.90;52.00;;;;;;5021598;28;20415;-63
2023/04/08 10:02:59;;;;;;;9.68;6.32;;;18.10;51.40;;;;;;5031515;28;20033;-63
2023/04/08 10:05:26;;;;;;;8.98;5.85;;;18.20;51.40;;;;;;5044651;28;20031;-63
2023/04/08 10:07:52;;;;;;;8.98;6.00;;;18.30;51.20;;;;;;5052752;28;20327;-63
2023/04/08 10:10:19;;;;;;;10.20;5.93;;;18.40;51.00;;;;;;5038819;28;20406;-63
2023/04/08 10:12:45;;;;;;;8.40;5.15;;;18.50;50.60;;;;;;5035178;28;20034;-63
2023/04/08 10:15:28;;;;;;;9.98;6.38;;;18.60;50.20;;;;;;5039038;28;20025;-64
2023/04/08 10:18:19;;;;;;;8.35;5.63;;;18.70;49.60;;;;;;5034187;28;20211;-63
2023/04/08 10:20:46;;;;;;;7.90;4.90;;;18.70;49.40;;;;;;5032209;28;20044;-63
2023/04/08 10:23:12;;;;;;;9.35;5.53;;;18.60;49.10;;;;;;5030893;28;20045;-64
2023/04/08 10:25:40;;;;;;;9.85;5.80;;;18.70;49.10;;;;;;5029968;28;20438;-64
2023/04/08 10:28:17;;;;;;;9.90;5.53;;;18.80;48.80;;;;;;5032496;28;20063;-63
2023/04/08 10:30:45;;;;;;;9.40;6.03;;;18.90;49.10;;;;;;5032222;28;20335;-63
2023/04/08 10:33:17;;;;;;;9.68;5.47;;;19.10;48.30;;;;;;5032310;28;20075;-63
2023/04/08 10:35:54;;;;;;;10.07;5.97;;;19.10;47.70;;;;;;5029658;28;20052;-63
2023/04/08 10:38:20;;;;;;;8.40;5.00;;;18.80;47.40;;;;;;5033365;28;20099;-63
2023/04/08 10:40:48;;;;;;;10.48;5.63;;;18.50;47.70;;;;;;5037572;28;20104;-63
2023/04/08 10:43:14;;;;;;;10.43;6.35;;;18.30;47.60;;;;;;5037218;28;20036;-63
2023/04/08 10:45:41;;;;;;;8.77;5.55;;;18.10;47.60;;;;;;5045412;28;20079;-63
2023/04/08 10:48:27;;;;;;;8.90;5.63;;;17.90;47.70;;;;;;5039517;28;20033;-63
2023/04/08 10:51:03;;;;;;;8.63;5.35;;;17.60;47.70;;;;;;5042601;28;20175;-63
2023/04/08 10:53:37;;;;;;;8.73;5.25;;;17.40;47.70;;;;;;5031728;28;20033;-64
2023/04/08 10:56:17;;;;;;;8.90;5.22;;;17.30;48.00;;;;;;5045013;28;20041;-64
2023/04/08 10:58:57;;;;;;;8.60;5.15;;;17.20;48.30;;;;;;5034286;28;20026;-64
2023/04/08 11:01:23;;;;;;;9.88;5.53;;;17.10;48.30;;;;;;5030620;28;20033;-64
2023/04/08 11:03:49;;;;;;;10.20;5.70;;;17.00;48.30;;;;;;5041168;28;20029;-63
2023/04/08 11:06:16;;;;;;;9.02;5.07;;;17.00;48.30;;;;;;5052252;28;20036;-64
2023/04/08 11:08:43;;;;;;;8.13;4.72;;;17.00;48.20;;;;;;5055534;28;20073;-64
2023/04/08 11:11:10;;;;;;;8.90;5.20;;;17.00;48.10;;;;;;5050021;28;20052;-64
2023/04/08 11:13:39;;;;;;;8.02;4.88;;;17.00;48.00;;;;;;5053941;28;20061;-63
2023/04/08 11:16:07;;;;;;;8.25;5.00;;;17.00;48.00;;;;;;5048161;28;20029;-64
2023/04/08 11:18:38;;;;;;;9.50;5.13;;;17.10;48.10;;;;;;5049969;28;20025;-63
2023/04/08 11:21:08;;;;;;;9.13;5.00;;;17.30;47.90;;;;;;5050510;28;20073;-64
2023/04/08 11:23:35;;;;;;;9.25;5.22;;;17.30;47.90;;;;;;5037654;28;20034;-63
2023/04/08 11:26:02;;;;;;;7.60;4.55;;;17.30;47.60;;;;;;5038158;28;20446;-63
2023/04/08 11:28:28;;;;;;;9.38;5.22;;;17.30;47.60;;;;;;5022112;28;20048;-64
2023/04/08 11:30:55;;;;;;;8.98;5.10;;;17.30;47.60;;;;;;5055945;28;20445;-63
2023/04/08 11:33:23;;;;;;;8.95;5.05;;;17.20;47.50;;;;;;5046258;28;20055;-64
2023/04/08 11:35:50;;;;;;;7.80;5.05;;;17.20;47.60;;;;;;5039428;28;20036;-64
2023/04/08 11:38:20;;;;;;;9.60;5.25;;;17.10;47.80;;;;;;5038347;28;20452;-63
2023/04/08 11:40:54;;;;;;;9.13;4.82;;;17.00;47.80;;;;;;5036933;28;20074;-63
2023/04/08 11:43:20;;;;;;;8.43;4.60;;;17.10;47.80;;;;;;5030300;28;20036;-64
2023/04/08 11:45:46;;;;;;;9.65;5.43;;;17.00;47.60;;;;;;5043386;28;20033;-63
2023/04/08 11:48:13;;;;;;;11.57;6.43;;;16.90;47.50;;;;;;5037510;28;20366;-63
2023/04/08 11:50:40;;;;;;;9.23;5.00;;;16.80;47.60;;;;;;5047690;28;20037;-64
2023/04/08 11:53:24;;;;;;;10.65;5.60;;;16.70;47.90;;;;;;5038660;28;20105;-63
2023/04/08 11:55:50;;;;;;;8.82;4.97;;;16.60;48.00;;;;;;5044509;28;20304;-63
2023/04/08 11:58:16;;;;;;;8.32;4.97;;;16.50;48.20;;;;;;5044054;28;20453;-63
2023/04/08 12:00:43;;;;;;;8.70;5.10;;;16.40;48.30;;;;;;5055373;28;20025;-63
2023/04/08 12:03:09;;;;;;;7.90;4.75;;;16.30;48.30;;;;;;5055636;28;20029;-63
2023/04/08 12:05:35;;;;;;;8.65;4.95;;;16.30;48.10;;;;;;5053987;28;20033;-63
2023/04/08 12:08:02;;;;;;;11.63;5.35;;;16.30;48.00;;;;;;5041545;28;20086;-63
2023/04/08 12:10:28;;;;;;;9.75;4.63;;;16.30;47.90;;;;;;5055351;28;20044;-63
2023/04/08 12:12:54;;;;;;;9.23;5.13;;;16.30;47.70;;;;;;5055113;28;20480;-63
2023/04/08 12:15:19;;;;;;;8.77;5.03;;;16.30;47.50;;;;;;5037668;28;20104;-63
2023/04/08 12:17:45;;;;;;;9.65;5.72;;;16.40;47.40;;;;;;5040487;28;20028;-63
2023/04/08 12:20:11;;;;;;;9.13;5.65;;;16.40;47.60;;;;;;5055176;28;20450;-64
2023/04/08 12:22:38;;;;;;;8.70;4.88;;;16.30;47.90;;;;;;5054809;28;20036;-63
2023/04/08 12:25:05;;;;;;;8.95;5.55;;;16.30;48.20;;;;;;5027298;28;20036;-63
2023/04/08 12:27:34;;;;;;;8.02;4.75;;;16.30;48.40;;;;;;5043263;28;20033;-63
2023/04/08 12:30:01;;;;;;;10.43;5.60;;;16.50;48.40;;;;;;5053643;28;20017;-64
2023/04/08 12:32:27;;;;;;;8.45;4.90;;;16.70;48.40;;;;;;5055096;28;20156;-63
2023/04/08 12:34:53;;;;;;;8.63;5.20;;;16.80;48.10;;;;;;5054950;28;20090;-63
2023/04/08 12:37:19;;;;;;;8.25;5.10;;;17.00;47.90;;;;;;5047829;28;20022;-63
2023/04/08 12:39:46;;;;;;;8.80;5.32;;;17.00;47.90;;;;;;5042515;28;20096;-63
2023/04/08 12:42:12;;;;;;;8.32;4.78;;;17.00;47.90;;;;;;5036740;28;20433;-63
2023/04/08 12:44:38;;;;;;;8.30;4.50;;;16.90;47.60;;;;;;5034367;28;20112;-63
2023/04/08 12:47:03;;;;;;;8.40;4.65;;;16.90;47.50;;;;;;5047025;28;20476;-63
2023/04/08 12:49:29;;;;;;;7.93;4.55;;;16.80;47.50;;;;;;5028645;28;20030;-63